Time;durP1;ratioP1;P1;durP2;ratioP2;P2;SDS_P1;SDS_P2;PMS_P1;PMS_P2;Temp;Humidity;BMP_temperature;BMP_pressure;BME280_temperature;BME280_humidity;BME280_pressure;Samples;Min_cycle;Max_cycle;Signal;HPM_P1;HPM_P2
2022/04/14 00:01:13;;;;;;;11.25;6.47;;;8.80;94.30;;;;;;5082875;28;20040;-91
2022/04/14 00:03:40;;;;;;;13.07;6.75;;;8.80;94.30;;;;;;5080335;28;20009;-88
2022/04/14 00:06:06;;;;;;;13.77;6.50;;;8.70;94.70;;;;;;5072820;28;20032;-88
2022/04/14 00:08:32;;;;;;;14.88;6.60;;;8.60;95.20;;;;;;5107061;27;20077;-88
2022/04/14 00:10:58;;;;;;;13.60;7.63;;;8.50;94.70;;;;;;5112218;27;20017;-91
2022/04/14 00:13:23;;;;;;;11.32;6.50;;;8.40;94.20;;;;;;5083713;28;20353;-89
2022/04/14 00:15:49;;;;;;;15.88;7.15;;;8.30;95.70;;;;;;5083614;28;20012;-88
2022/04/14 00:18:15;;;;;;;11.52;6.78;;;8.30;98.40;;;;;;5077125;28;20061;-88
2022/04/14 00:20:41;;;;;;;9.52;6.25;;;8.40;99.30;;;;;;5079614;28;20013;-89
2022/04/14 00:23:07;;;;;;;12.35;6.95;;;8.40;99.90;;;;;;5075507;28;20586;-91
2022/04/14 00:25:32;;;;;;;11.30;6.82;;;8.40;99.90;;;;;;5072979;28;20084;-89
2022/04/14 00:27:58;;;;;;;13.93;7.90;;;8.30;99.90;;;;;;5075048;28;20089;-89
2022/04/14 00:30:24;;;;;;;16.52;6.90;;;8.40;99.90;;;;;;5091576;28;20032;-86
2022/04/14 00:32:49;;;;;;;22.73;7.60;;;8.50;99.90;;;;;;5086954;28;20052;-90
2022/04/14 00:35:15;;;;;;;14.02;7.72;;;8.40;99.30;;;;;;5081619;28;20023;-91
2022/04/14 00:37:41;;;;;;;12.02;7.32;;;8.50;99.90;;;;;;5085528;28;20017;-91
2022/04/14 00:40:07;;;;;;;15.75;7.45;;;8.40;99.50;;;;;;5080947;28;20109;-87
2022/04/14 00:42:33;;;;;;;13.68;6.93;;;8.40;99.90;;;;;;5066558;28;20060;-88
2022/04/14 00:44:59;;;;;;;11.63;7.88;;;8.30;99.90;;;;;;5106239;27;20009;-87
2022/04/14 00:47:25;;;;;;;12.60;6.32;;;8.30;99.90;;;;;;5056620;28;20085;-91
2022/04/14 00:49:51;;;;;;;12.20;7.43;;;8.10;99.90;;;;;;5092271;28;20045;-89
2022/04/14 00:52:16;;;;;;;11.55;6.70;;;8.10;99.90;;;;;;5094501;28;20184;-87
2022/04/14 00:54:42;;;;;;;12.95;6.88;;;8.00;99.90;;;;;;5093297;28;20496;-88
2022/04/14 00:57:08;;;;;;;13.10;7.95;;;8.10;99.90;;;;;;5071981;28;20161;-87
2022/04/14 00:59:34;;;;;;;13.38;8.10;;;8.00;99.90;;;;;;5090555;28;20032;-95
2022/04/14 01:02:00;;;;;;;16.55;7.57;;;8.00;99.90;;;;;;5048419;28;20029;-89
2022/04/14 01:04:27;;;;;;;16.27;7.65;;;7.90;99.90;;;;;;5066418;28;20446;-88
2022/04/14 01:06:53;;;;;;;13.25;7.50;;;8.00;99.90;;;;;;5060750;28;20042;-89
2022/04/14 01:09:20;;;;;;;12.07;6.70;;;7.80;99.90;;;;;;5043446;28;20033;-88
2022/04/14 01:11:46;;;;;;;12.90;7.50;;;7.90;99.90;;;;;;5069976;28;20029;-90
2022/04/14 01:14:39;;;;;;;13.80;8.23;;;7.80;99.90;;;;;;5078527;28;20033;-88
2022/04/14 01:17:08;;;;;;;14.13;8.82;;;7.90;99.90;;;;;;5066312;28;20037;-88
2022/04/14 01:19:34;;;;;;;10.98;6.90;;;7.80;99.90;;;;;;5077985;28;20024;-94
2022/04/14 01:22:07;;;;;;;13.93;7.72;;;7.80;99.90;;;;;;5088596;28;20019;-90
2022/04/14 01:24:35;;;;;;;12.50;7.05;;;7.80;99.90;;;;;;5072200;28;20032;-88
2022/04/14 01:27:01;;;;;;;14.18;7.88;;;7.80;99.90;;;;;;5074919;28;20019;-90
2022/04/14 01:29:28;;;;;;;14.93;8.13;;;7.70;99.90;;;;;;5092345;28;20032;-88
2022/04/14 01:31:55;;;;;;;12.15;7.55;;;7.70;99.90;;;;;;5088932;28;20108;-91
2022/04/14 01:34:21;;;;;;;14.25;7.22;;;7.70;99.90;;;;;;5098778;28;20013;-90
2022/04/14 01:36:46;;;;;;;13.15;7.57;;;7.70;99.90;;;;;;5094515;28;20050;-88
2022/04/14 01:39:14;;;;;;;11.38;7.28;;;7.60;99.90;;;;;;5085202;28;20021;-89
2022/04/14 01:41:41;;;;;;;16.05;7.80;;;7.50;99.90;;;;;;5059655;28;20147;-88
2022/04/14 01:44:08;;;;;;;16.02;8.93;;;7.50;99.90;;;;;;5061852;28;20132;-88
2022/04/14 01:46:34;;;;;;;16.48;9.10;;;7.60;99.90;;;;;;5062406;28;20348;-88
2022/04/14 01:49:00;;;;;;;13.05;8.57;;;7.60;99.90;;;;;;5058862;28;20075;-88
2022/04/14 01:51:27;;;;;;;14.10;7.95;;;7.70;99.90;;;;;;5054219;28;20028;-88
2022/04/14 01:53:53;;;;;;;11.93;7.82;;;7.60;99.90;;;;;;5047982;28;20061;-87
2022/04/14 01:56:19;;;;;;;14.00;7.72;;;7.60;99.90;;;;;;5059283;28;20039;-89
2022/04/14 01:58:45;;;;;;;13.85;8.35;;;7.50;99.90;;;;;;5076724;28;20574;-88
2022/04/14 02:01:12;;;;;;;13.98;8.25;;;7.40;99.90;;;;;;5078319;28;20032;-90
2022/04/14 02:03:38;;;;;;;12.68;8.88;;;7.30;99.90;;;;;;5074892;28;20048;-89
2022/04/14 02:06:03;;;;;;;12.60;8.18;;;7.20;99.90;;;;;;5075251;28;20059;-91
2022/04/14 02:08:29;;;;;;;17.27;8.15;;;7.20;99.90;;;;;;5089140;28;20051;-89
2022/04/14 02:10:55;;;;;;;11.40;7.70;;;7.10;99.90;;;;;;5075624;28;20033;-88
2022/04/14 02:13:20;;;;;;;12.18;7.47;;;7.00;99.90;;;;;;5069488;28;20097;-90
2022/04/14 02:15:46;;;;;;;15.68;9.27;;;7.00;99.90;;;;;;5072225;28;20085;-88
2022/04/14 02:18:12;;;;;;;14.65;8.27;;;7.00;99.90;;;;;;5077315;28;20024;-90
2022/04/14 02:20:37;;;;;;;13.27;9.15;;;6.90;99.90;;;;;;5078209;28;20039;-90
2022/04/14 02:23:03;;;;;;;15.05;8.07;;;6.80;99.90;;;;;;5076572;28;20040;-89
2022/04/14 02:25:29;;;;;;;12.52;8.15;;;6.90;99.90;;;;;;5060273;28;20013;-90
2022/04/14 02:27:55;;;;;;;12.52;7.93;;;6.80;99.90;;;;;;5078499;28;20073;-90
2022/04/14 02:30:20;;;;;;;14.65;9.20;;;6.90;99.90;;;;;;5076972;28;20024;-89
2022/04/14 02:32:46;;;;;;;13.13;7.22;;;6.80;99.90;;;;;;5075202;28;20113;-89
2022/04/14 02:35:12;;;;;;;14.90;9.25;;;6.70;99.90;;;;;;5074511;28;20025;-89
2022/04/14 02:37:38;;;;;;;14.82;8.23;;;6.60;99.90;;;;;;5078542;28;20017;-89
2022/04/14 02:40:04;;;;;;;14.20;8.50;;;6.80;99.90;;;;;;5059769;28;20017;-88
2022/04/14 02:42:30;;;;;;;13.35;7.68;;;6.80;99.90;;;;;;5106161;28;20008;-92
2022/04/14 02:44:56;;;;;;;15.60;9.32;;;6.70;99.90;;;;;;5094045;28;20044;-88
2022/04/14 02:47:22;;;;;;;16.90;9.40;;;6.60;99.90;;;;;;5078072;28;20048;-90
2022/04/14 02:49:47;;;;;;;12.65;8.35;;;6.70;99.90;;;;;;5082670;28;20062;-89
2022/04/14 02:52:13;;;;;;;20.02;9.68;;;6.60;99.90;;;;;;5071688;28;20495;-87
2022/04/14 02:54:39;;;;;;;13.05;8.05;;;6.70;99.90;;;;;;5072089;28;20116;-90
2022/04/14 02:57:08;;;;;;;12.48;7.95;;;6.80;99.90;;;;;;5083890;28;20032;-90
2022/04/14 02:59:34;;;;;;;17.48;8.73;;;6.80;99.90;;;;;;5060541;28;20053;-90
2022/04/14 03:02:01;;;;;;;14.38;8.77;;;6.90;99.90;;;;;;5073403;28;20071;-87
2022/04/14 03:04:29;;;;;;;15.43;8.82;;;6.80;99.90;;;;;;5076210;28;20013;-89
2022/04/14 03:06:55;;;;;;;14.18;8.68;;;6.80;99.90;;;;;;5083657;28;20024;-90
2022/04/14 03:09:21;;;;;;;17.50;9.20;;;6.90;99.90;;;;;;5075185;28;20025;-87
2022/04/14 03:11:47;;;;;;;15.25;8.07;;;6.90;99.90;;;;;;5069236;28;20033;-89
2022/04/14 03:14:13;;;;;;;16.73;8.70;;;7.00;99.90;;;;;;5069954;28;20009;-89
2022/04/14 03:16:38;;;;;;;13.82;7.45;;;7.00;99.90;;;;;;5071007;28;20513;-91
2022/04/14 03:19:04;;;;;;;10.82;6.70;;;6.90;99.90;;;;;;5069982;28;20112;-88
2022/04/14 03:21:30;;;;;;;14.13;8.18;;;6.80;99.90;;;;;;5070607;28;20025;-88
2022/04/14 03:23:55;;;;;;;14.40;8.45;;;6.70;99.90;;;;;;5074234;28;20579;-89
2022/04/14 03:26:21;;;;;;;15.52;8.30;;;6.60;99.90;;;;;;5087846;28;20064;-88
2022/04/14 03:28:47;;;;;;;19.27;7.93;;;6.50;99.90;;;;;;5091868;28;20091;-91
2022/04/14 03:31:12;;;;;;;15.00;7.75;;;6.40;99.90;;;;;;5087760;28;20059;-89
2022/04/14 03:33:38;;;;;;;12.82;7.28;;;6.40;99.90;;;;;;5058892;28;20064;-87
2022/04/14 03:36:04;;;;;;;13.18;7.88;;;6.20;99.90;;;;;;5040173;28;20033;-88
2022/04/14 03:38:30;;;;;;;18.85;9.18;;;6.20;99.90;;;;;;5057372;28;20048;-88
2022/04/14 03:40:56;;;;;;;11.48;8.50;;;6.20;99.90;;;;;;5075119;28;20096;-93
2022/04/14 03:43:22;;;;;;;14.00;7.95;;;6.20;99.90;;;;;;5057998;28;20215;-89
2022/04/14 03:45:48;;;;;;;13.70;8.02;;;6.10;99.90;;;;;;5055621;28;20047;-89
2022/04/14 03:48:13;;;;;;;14.63;9.35;;;6.00;99.90;;;;;;5031788;28;20040;-90
2022/04/14 03:50:39;;;;;;;15.70;8.10;;;6.00;99.90;;;;;;5046350;28;20037;-87
2022/04/14 03:53:05;;;;;;;13.50;7.85;;;6.00;99.90;;;;;;5039264;28;20076;-90
2022/04/14 03:55:31;;;;;;;14.15;8.40;;;6.00;99.90;;;;;;5034725;28;20025;-88
2022/04/14 03:57:57;;;;;;;18.67;8.88;;;6.00;99.90;;;;;;5034234;28;20461;-88
2022/04/14 04:00:22;;;;;;;15.48;8.40;;;6.00;99.90;;;;;;5036216;28;20033;-88
2022/04/14 04:02:48;;;;;;;15.80;8.18;;;6.00;99.90;;;;;;5050424;28;20492;-89
2022/04/14 04:05:14;;;;;;;16.13;8.43;;;5.90;99.90;;;;;;5044876;28;20491;-89
2022/04/14 04:07:39;;;;;;;14.90;7.75;;;5.80;99.90;;;;;;5064742;28;20029;-88
2022/04/14 04:10:06;;;;;;;15.70;8.90;;;5.90;99.90;;;;;;5051904;28;20074;-88
2022/04/14 04:12:32;;;;;;;18.67;9.32;;;5.90;99.90;;;;;;5034225;28;20170;-89
2022/04/14 04:14:58;;;;;;;12.73;7.80;;;5.80;99.90;;;;;;5050583;28;20481;-89
2022/04/14 04:17:23;;;;;;;12.82;8.00;;;5.80;99.90;;;;;;5054171;28;20032;-90
2022/04/14 04:19:49;;;;;;;14.60;7.78;;;5.90;99.90;;;;;;5051938;28;20484;-88
2022/04/14 04:22:15;;;;;;;14.55;9.18;;;5.90;99.90;;;;;;5057138;28;20037;-89
2022/04/14 04:24:40;;;;;;;13.63;8.05;;;5.80;99.90;;;;;;5054137;28;20090;-87
2022/04/14 04:27:06;;;;;;;13.48;7.63;;;5.70;99.90;;;;;;5038536;28;20033;-88
2022/04/14 04:29:32;;;;;;;13.82;8.55;;;5.70;99.90;;;;;;5057008;28;20029;-87
2022/04/14 04:31:58;;;;;;;14.65;8.88;;;5.80;99.90;;;;;;5051568;28;20055;-89
2022/04/14 04:34:24;;;;;;;45.92;9.38;;;5.80;99.90;;;;;;5048931;28;20020;-88
2022/04/14 04:36:50;;;;;;;14.23;7.43;;;5.80;99.90;;;;;;5033177;28;20090;-88
2022/04/14 04:39:16;;;;;;;16.20;9.27;;;5.80;99.90;;;;;;5050692;28;20030;-88
2022/04/14 04:41:41;;;;;;;16.02;8.30;;;5.90;99.90;;;;;;5051949;28;20491;-88
2022/04/14 04:44:07;;;;;;;14.40;8.50;;;5.90;99.90;;;;;;5049809;28;20031;-88
2022/04/14 04:46:33;;;;;;;14.50;9.50;;;6.10;99.90;;;;;;5047522;28;20067;-87
2022/04/14 04:48:59;;;;;;;19.58;10.73;;;6.10;99.90;;;;;;5050013;28;20060;-87
2022/04/14 04:51:25;;;;;;;16.98;9.52;;;6.20;99.90;;;;;;5028351;28;20029;-88
2022/04/14 04:53:51;;;;;;;14.32;7.82;;;6.30;99.90;;;;;;5045103;28;20568;-89
2022/04/14 04:56:19;;;;;;;17.23;10.23;;;6.40;99.90;;;;;;5044412;28;20465;-88
2022/04/14 04:58:46;;;;;;;14.73;8.40;;;6.40;99.90;;;;;;5049565;28;20056;-90
2022/04/14 05:01:12;;;;;;;13.07;8.15;;;6.50;99.90;;;;;;5054018;28;20029;-89
2022/04/14 05:03:38;;;;;;;15.75;9.50;;;6.60;99.90;;;;;;5055061;28;20124;-90
2022/04/14 05:06:03;;;;;;;15.30;8.75;;;6.60;99.90;;;;;;5054260;28;20036;-90
2022/04/14 05:08:29;;;;;;;15.40;9.07;;;6.70;99.90;;;;;;5054533;28;20024;-88
2022/04/14 05:10:55;;;;;;;12.85;8.10;;;6.80;99.90;;;;;;5053978;28;20033;-89
2022/04/14 05:13:21;;;;;;;15.23;9.02;;;6.90;99.90;;;;;;5054696;28;20480;-88
2022/04/14 05:15:47;;;;;;;16.67;8.32;;;7.00;99.90;;;;;;5054545;28;20029;-88
2022/04/14 05:18:12;;;;;;;13.57;8.30;;;7.00;99.90;;;;;;5048287;28;20036;-89
2022/04/14 05:20:40;;;;;;;13.13;8.15;;;7.10;99.90;;;;;;5046420;28;20484;-87
2022/04/14 05:23:09;;;;;;;15.00;8.23;;;7.10;99.90;;;;;;5054588;28;20025;-88
2022/04/14 05:25:36;;;;;;;13.20;7.32;;;7.10;99.90;;;;;;5054516;28;20138;-88
2022/04/14 05:28:02;;;;;;;12.75;8.60;;;7.20;99.90;;;;;;5055056;28;20086;-90
2022/04/14 05:30:27;;;;;;;14.02;7.85;;;7.20;99.90;;;;;;5053569;28;20033;-89
2022/04/14 05:32:53;;;;;;;13.23;7.80;;;7.30;99.90;;;;;;5054796;28;20037;-84
2022/04/14 05:35:21;;;;;;;15.30;7.82;;;7.40;99.90;;;;;;5053416;28;20025;-88
2022/04/14 05:37:47;;;;;;;12.43;7.82;;;7.50;99.90;;;;;;5051567;28;20407;-85
2022/04/14 05:40:13;;;;;;;15.60;7.65;;;7.50;99.90;;;;;;5052839;28;20027;-85
2022/04/14 05:42:39;;;;;;;11.38;6.53;;;7.60;99.90;;;;;;5053864;28;20029;-84
2022/04/14 05:45:05;;;;;;;18.55;8.27;;;7.70;99.90;;;;;;5054407;28;20055;-86
2022/04/14 05:47:31;;;;;;;12.23;7.75;;;7.80;99.90;;;;;;5061262;28;20504;-86
2022/04/14 05:49:56;;;;;;;13.90;8.10;;;7.90;99.90;;;;;;5055226;28;20033;-84
2022/04/14 05:52:22;;;;;;;20.70;8.75;;;8.00;99.90;;;;;;5050785;28;20036;-85
2022/04/14 05:54:48;;;;;;;11.38;6.68;;;8.10;99.90;;;;;;5048836;28;20071;-85
2022/04/14 05:57:14;;;;;;;11.82;6.85;;;8.30;99.90;;;;;;5051175;28;20088;-85
2022/04/14 05:59:40;;;;;;;13.85;7.10;;;8.30;99.90;;;;;;5050510;28;20025;-84
2022/04/14 06:02:07;;;;;;;16.25;7.70;;;8.50;99.90;;;;;;5032445;28;20039;-84
2022/04/14 06:04:33;;;;;;;14.60;7.63;;;8.60;99.90;;;;;;5048589;28;20048;-84
2022/04/14 06:06:58;;;;;;;13.57;7.35;;;8.70;99.90;;;;;;5046184;28;20029;-87
2022/04/14 06:09:24;;;;;;;11.02;7.38;;;8.90;99.90;;;;;;5047591;28;20086;-85
2022/04/14 06:11:50;;;;;;;18.17;8.02;;;9.00;99.90;;;;;;5049132;28;20033;-84
2022/04/14 06:14:15;;;;;;;13.60;8.00;;;9.30;99.90;;;;;;5050925;28;20059;-84
2022/04/14 06:16:41;;;;;;;10.75;7.18;;;9.50;99.90;;;;;;5049763;28;20380;-84
2022/04/14 06:19:07;;;;;;;12.65;8.80;;;9.70;99.90;;;;;;5049755;28;20534;-84
2022/04/14 06:21:32;;;;;;;17.88;7.50;;;9.80;99.90;;;;;;5038086;28;20305;-85
2022/04/14 06:23:59;;;;;;;8.90;6.38;;;10.00;99.90;;;;;;5069467;28;20025;-84
2022/04/14 06:26:25;;;;;;;14.18;7.40;;;10.30;99.60;;;;;;5074876;28;20041;-82
2022/04/14 06:28:51;;;;;;;14.50;6.68;;;10.40;99.90;;;;;;5065439;28;20118;-85
2022/04/14 06:31:16;;;;;;;16.25;7.35;;;10.80;99.90;;;;;;5050099;28;20049;-85
2022/04/14 06:33:44;;;;;;;10.15;6.35;;;11.00;98.20;;;;;;5050343;28;20547;-85
2022/04/14 06:36:10;;;;;;;12.57;7.07;;;11.20;97.60;;;;;;5044520;28;20071;-81
2022/04/14 06:38:36;;;;;;;11.55;7.28;;;11.30;97.50;;;;;;5052321;28;20029;-84
2022/04/14 06:41:02;;;;;;;11.27;6.93;;;11.40;96.80;;;;;;5049662;28;20136;-85
2022/04/14 06:43:30;;;;;;;11.05;7.22;;;11.50;95.60;;;;;;5050329;28;20484;-85
2022/04/14 06:45:58;;;;;;;10.30;6.72;;;11.50;95.80;;;;;;5051310;28;20021;-85
2022/04/14 06:48:23;;;;;;;10.35;7.10;;;11.70;96.60;;;;;;5051726;28;20527;-85
2022/04/14 06:50:49;;;;;;;13.75;8.82;;;11.90;93.90;;;;;;5050178;28;20064;-85
2022/04/14 06:53:16;;;;;;;15.07;8.35;;;12.00;93.40;;;;;;5047984;28;20112;-86
2022/04/14 06:55:45;;;;;;;21.52;10.15;;;12.10;94.10;;;;;;5045420;28;20021;-84
2022/04/14 06:58:11;;;;;;;15.13;9.77;;;12.20;93.60;;;;;;5047233;28;20537;-84
2022/04/14 07:00:37;;;;;;;16.70;9.88;;;12.30;94.50;;;;;;5048905;28;20040;-85
2022/04/14 07:03:02;;;;;;;15.85;9.73;;;12.50;94.40;;;;;;5053906;28;20116;-85
2022/04/14 07:05:28;;;;;;;18.90;9.82;;;12.50;94.40;;;;;;5052846;28;20086;-85
2022/04/14 07:07:54;;;;;;;15.57;9.65;;;12.60;94.10;;;;;;5059288;28;20033;-84
2022/04/14 07:10:19;;;;;;;13.65;9.55;;;12.70;93.90;;;;;;5052173;28;20024;-84
2022/04/14 07:12:46;;;;;;;15.80;9.60;;;12.60;92.80;;;;;;5054321;28;20575;-84
2022/04/14 07:15:12;;;;;;;16.55;10.48;;;12.70;93.10;;;;;;5051329;28;20066;-83
2022/04/14 07:17:38;;;;;;;16.85;9.98;;;12.80;92.60;;;;;;5054093;28;20255;-87
2022/04/14 07:20:09;;;;;;;14.68;9.70;;;12.90;92.80;;;;;;5049534;28;20033;-84
2022/04/14 07:22:46;;;;;;;13.93;8.38;;;13.00;92.60;;;;;;5048167;28;20629;-83
2022/04/14 07:25:12;;;;;;;15.32;9.35;;;13.10;92.30;;;;;;5047159;28;20143;-85
2022/04/14 07:27:38;;;;;;;11.80;8.30;;;13.20;92.50;;;;;;5061080;28;20020;-85
2022/04/14 07:30:04;;;;;;;13.07;9.52;;;13.30;91.40;;;;;;5056779;28;20126;-85
2022/04/14 07:32:49;;;;;;;15.70;9.00;;;13.40;91.80;;;;;;5056527;28;20130;-84
2022/04/14 07:35:15;;;;;;;15.57;10.10;;;13.60;92.80;;;;;;5047733;28;20024;-84
2022/04/14 07:37:42;;;;;;;13.60;9.27;;;13.70;91.80;;;;;;5053053;28;20033;-84
2022/04/14 07:40:08;;;;;;;15.40;9.07;;;13.90;91.20;;;;;;5065158;28;20086;-85
2022/04/14 07:42:36;;;;;;;15.57;11.00;;;14.20;91.80;;;;;;5067593;28;20044;-85
2022/04/14 07:45:04;;;;;;;16.00;9.25;;;14.40;88.50;;;;;;5051285;28;20036;-85
2022/04/14 07:47:30;;;;;;;12.32;8.32;;;14.70;92.20;;;;;;5061932;28;20024;-85
2022/04/14 07:49:56;;;;;;;13.93;9.35;;;14.90;89.20;;;;;;5048197;28;20718;-84
2022/04/14 07:52:21;;;;;;;13.57;8.07;;;14.90;87.00;;;;;;5048104;28;20495;-84
2022/04/14 07:54:47;;;;;;;16.67;9.68;;;15.30;88.20;;;;;;5048211;28;20434;-85
2022/04/14 07:57:12;;;;;;;13.95;8.05;;;15.40;85.50;;;;;;5063503;28;20029;-84
2022/04/14 07:59:38;;;;;;;14.93;9.18;;;15.60;82.00;;;;;;5057861;28;20056;-85
2022/04/14 08:02:04;;;;;;;11.90;8.18;;;15.80;82.60;;;;;;5058860;28;21008;-84
2022/04/14 08:04:33;;;;;;;12.75;8.02;;;16.00;85.50;;;;;;5039604;28;20025;-84
2022/04/14 08:06:58;;;;;;;18.27;8.65;;;16.40;82.10;;;;;;5060204;28;20501;-83
2022/04/14 08:09:24;;;;;;;11.43;7.45;;;16.50;78.40;;;;;;5054749;28;20115;-84
2022/04/14 08:11:50;;;;;;;13.30;8.15;;;16.70;74.90;;;;;;5057647;28;20121;-84
2022/04/14 08:14:16;;;;;;;14.70;8.13;;;16.60;73.70;;;;;;5054889;28;20039;-85
2022/04/14 08:16:41;;;;;;;11.57;7.20;;;16.80;75.30;;;;;;5036805;28;20553;-85
2022/04/14 08:19:07;;;;;;;16.23;8.60;;;16.70;74.40;;;;;;5050559;28;20028;-84
2022/04/14 08:21:32;;;;;;;19.08;10.18;;;16.50;75.20;;;;;;5058250;28;20033;-84
2022/04/14 08:23:58;;;;;;;14.80;7.78;;;16.60;75.10;;;;;;5055453;28;20033;-86
2022/04/14 08:26:28;;;;;;;14.15;8.57;;;16.90;75.40;;;;;;5056994;28;20359;-84
2022/04/14 08:28:55;;;;;;;15.43;8.52;;;16.90;76.00;;;;;;5059065;28;20032;-84
2022/04/14 08:31:23;;;;;;;14.75;9.13;;;16.70;75.50;;;;;;5050913;28;20045;-85
2022/04/14 08:33:49;;;;;;;13.68;8.35;;;16.80;74.60;;;;;;5064032;28;20036;-85
2022/04/14 08:36:16;;;;;;;10.85;8.38;;;16.80;73.50;;;;;;5061656;28;20024;-84
2022/04/14 08:38:47;;;;;;;16.00;8.63;;;16.90;72.00;;;;;;5060325;28;20552;-84
2022/04/14 08:41:14;;;;;;;14.00;8.68;;;16.90;69.50;;;;;;5055183;28;20479;-83
2022/04/14 08:43:55;;;;;;;11.88;7.80;;;16.90;71.80;;;;;;5088919;28;20812;-84
2022/04/14 08:46:22;;;;;;;13.85;8.35;;;17.10;69.30;;;;;;5054863;28;20190;-83
2022/04/14 08:48:50;;;;;;;13.15;9.45;;;17.40;70.20;;;;;;5055313;28;20246;-83
2022/04/14 08:51:17;;;;;;;14.15;9.68;;;17.40;72.10;;;;;;5051590;28;20040;-84
2022/04/14 08:53:43;;;;;;;23.38;10.18;;;17.50;76.40;;;;;;5052625;28;20119;-85
2022/04/14 08:56:10;;;;;;;14.52;8.73;;;17.80;73.00;;;;;;5062811;28;20036;-84
2022/04/14 08:58:37;;;;;;;16.70;9.73;;;17.70;69.60;;;;;;5065540;28;20025;-84
2022/04/14 09:01:03;;;;;;;12.65;8.93;;;17.80;71.30;;;;;;5063231;28;20154;-85
2022/04/14 09:03:31;;;;;;;16.13;10.20;;;17.80;70.10;;;;;;5048670;28;20084;-85
2022/04/14 09:05:57;;;;;;;12.15;9.05;;;17.80;70.10;;;;;;5053449;28;20090;-86
2022/04/14 09:08:22;;;;;;;15.27;8.80;;;18.00;73.90;;;;;;5056053;28;20033;-82
2022/04/14 09:10:49;;;;;;;12.88;9.80;;;18.40;72.20;;;;;;5054543;28;20042;-84
2022/04/14 09:13:15;;;;;;;16.98;10.63;;;18.30;67.50;;;;;;5050738;28;20036;-83
2022/04/14 09:15:41;;;;;;;19.02;9.18;;;18.50;68.10;;;;;;5056534;28;20079;-81
2022/04/14 09:18:07;;;;;;;13.80;9.43;;;18.60;68.30;;;;;;5054383;28;20029;-87
2022/04/14 09:20:38;;;;;;;14.50;8.88;;;18.80;63.20;;;;;;5050879;28;20040;-83
2022/04/14 09:23:26;;;;;;;13.88;8.20;;;18.70;64.80;;;;;;5051081;28;20132;-83
2022/04/14 09:25:52;;;;;;;18.92;9.48;;;19.00;63.30;;;;;;5057434;28;20498;-84
2022/04/14 09:28:20;;;;;;;15.00;8.80;;;19.00;63.50;;;;;;5064674;28;20056;-84
2022/04/14 09:30:58;;;;;;;15.98;10.40;;;19.30;64.40;;;;;;5062287;28;20075;-83
2022/04/14 09:33:24;;;;;;;13.82;8.80;;;19.40;64.50;;;;;;5057024;28;20506;-83
2022/04/14 09:36:04;;;;;;;14.43;8.88;;;19.10;59.60;;;;;;5052838;28;20033;-85
2022/04/14 09:38:58;;;;;;;18.33;8.75;;;19.20;60.50;;;;;;5057381;28;20104;-85
2022/04/14 09:41:39;;;;;;;14.20;8.52;;;19.40;59.20;;;;;;5055933;28;20119;-85
2022/04/14 09:44:06;;;;;;;11.70;8.65;;;19.70;57.80;;;;;;5058162;28;20082;-84
2022/04/14 09:46:32;;;;;;;11.55;8.02;;;19.60;58.00;;;;;;5053251;28;20116;-84
2022/04/14 09:49:18;;;;;;;11.93;8.65;;;20.00;61.30;;;;;;5067818;28;20025;-85
2022/04/14 09:51:46;;;;;;;16.80;8.90;;;19.90;57.70;;;;;;5050837;28;20176;-84
2022/04/14 09:54:28;;;;;;;14.27;9.02;;;20.00;58.20;;;;;;5058296;28;20030;-84
2022/04/14 09:56:57;;;;;;;11.50;8.45;;;20.10;56.20;;;;;;5043653;28;20313;-84
2022/04/14 09:59:24;;;;;;;12.23;9.02;;;20.40;57.70;;;;;;5060348;28;20482;-85
2022/04/14 10:02:09;;;;;;;20.40;9.30;;;20.30;55.50;;;;;;5040926;28;20088;-84
2022/04/14 10:04:40;;;;;;;14.18;8.45;;;20.30;56.00;;;;;;5055504;28;20033;-85
2022/04/14 10:07:11;;;;;;;16.52;8.98;;;20.40;54.90;;;;;;5055368;28;20410;-84
2022/04/14 10:09:39;;;;;;;13.85;8.43;;;20.50;52.50;;;;;;5055828;28;20035;-84
2022/04/14 10:12:19;;;;;;;12.90;7.95;;;20.80;55.20;;;;;;5057291;28;20037;-84
2022/04/14 10:15:04;;;;;;;15.65;8.18;;;21.00;54.00;;;;;;5054663;28;20016;-84
2022/04/14 10:17:38;;;;;;;19.40;9.10;;;21.10;51.60;;;;;;5052209;28;20021;-84
2022/04/14 10:20:06;;;;;;;11.15;8.05;;;21.30;51.00;;;;;;5052917;28;20527;-85
2022/04/14 10:22:32;;;;;;;13.93;8.68;;;21.60;50.20;;;;;;5064514;28;20032;-85
2022/04/14 10:24:59;;;;;;;12.35;8.68;;;21.50;52.80;;;;;;5051321;28;20025;-84
2022/04/14 10:27:25;;;;;;;13.60;7.78;;;21.40;51.70;;;;;;5063629;28;20036;-84
2022/04/14 10:29:51;;;;;;;12.55;8.00;;;21.80;49.80;;;;;;5041739;28;20029;-84
2022/04/14 10:32:17;;;;;;;12.23;8.02;;;22.20;48.50;;;;;;5055870;28;20074;-86
2022/04/14 10:34:45;;;;;;;17.33;8.73;;;22.20;46.90;;;;;;5051052;28;20033;-85
2022/04/14 10:37:17;;;;;;;18.52;8.60;;;22.40;46.20;;;;;;5073099;28;20484;-85
2022/04/14 10:39:46;;;;;;;18.17;9.07;;;22.10;46.30;;;;;;5053634;28;20037;-84
2022/04/14 10:42:25;;;;;;;10.75;7.82;;;21.90;45.70;;;;;;5056242;28;20029;-85
2022/04/14 10:44:52;;;;;;;15.15;9.05;;;22.30;45.80;;;;;;5052835;28;20025;-85
2022/04/14 10:47:35;;;;;;;11.77;9.27;;;21.90;44.20;;;;;;5053878;28;20024;-84
2022/04/14 10:50:03;;;;;;;11.35;8.57;;;21.90;46.40;;;;;;5049369;28;20034;-84
2022/04/14 10:52:28;;;;;;;11.07;7.43;;;22.10;46.10;;;;;;5043702;28;20524;-85
2022/04/14 10:54:59;;;;;;;14.02;8.18;;;23.30;42.50;;;;;;5044422;28;20245;-85
2022/04/14 11:00:35;;;;;;;13.75;7.93;;;24.30;39.00;;;;;;5054256;28;20029;-85
2022/04/14 11:03:09;;;;;;;12.25;7.78;;;24.20;40.40;;;;;;5061167;28;20133;-85
2022/04/14 11:05:48;;;;;;;11.93;8.00;;;24.10;38.00;;;;;;5050929;28;20057;-85
2022/04/14 11:08:24;;;;;;;14.50;8.43;;;24.50;37.90;;;;;;5038452;28;20119;-85
2022/04/14 11:11:09;;;;;;;11.63;6.95;;;24.60;37.60;;;;;;5058597;28;20028;-85
2022/04/14 11:13:53;;;;;;;14.30;7.57;;;25.00;35.10;;;;;;5079412;28;20024;-83
2022/04/14 11:16:38;;;;;;;9.68;7.03;;;25.20;34.20;;;;;;5085837;28;20041;-87
2022/04/14 11:19:20;;;;;;;12.43;6.68;;;25.70;37.60;;;;;;5053972;28;20032;-85
2022/04/14 11:22:12;;;;;;;13.93;7.72;;;25.80;34.00;;;;;;5061710;28;20029;-85
2022/04/14 11:24:41;;;;;;;11.98;6.28;;;25.40;31.20;;;;;;5048743;28;20189;-84
2022/04/14 11:27:14;;;;;;;11.30;7.05;;;25.90;31.40;;;;;;5057425;28;20161;-85
2022/04/14 11:29:43;;;;;;;10.82;6.47;;;24.70;32.00;;;;;;5072248;28;20021;-85
2022/04/14 11:32:09;;;;;;;12.57;6.03;;;25.60;32.00;;;;;;5057037;28;20102;-85
2022/04/14 11:34:36;;;;;;;9.13;6.25;;;26.30;31.00;;;;;;5052249;28;20029;-85
2022/04/14 11:37:03;;;;;;;14.63;5.05;;;26.80;30.70;;;;;;5054937;28;20029;-84
2022/04/14 11:39:29;;;;;;;11.65;5.78;;;26.50;28.60;;;;;;5054822;28;20051;-85
2022/04/14 11:42:16;;;;;;;9.10;5.00;;;26.80;28.00;;;;;;5052256;28;20087;-85
2022/04/14 11:44:42;;;;;;;12.02;5.78;;;27.30;27.40;;;;;;5053850;28;20036;-85
2022/04/14 11:47:08;;;;;;;9.38;5.70;;;26.70;27.50;;;;;;5051983;28;20082;-85
2022/04/14 11:49:35;;;;;;;11.63;6.00;;;26.50;28.40;;;;;;5049006;28;20035;-85
2022/04/14 11:52:03;;;;;;;12.20;6.82;;;26.80;28.70;;;;;;5051285;28;20029;-84
2022/04/14 11:54:29;;;;;;;8.77;5.97;;;26.90;28.60;;;;;;5073228;28;20036;-84
2022/04/14 11:57:07;;;;;;;8.98;6.30;;;27.80;27.40;;;;;;5061582;28;20039;-85
2022/04/14 11:59:41;;;;;;;11.68;5.28;;;28.20;29.70;;;;;;5058550;28;20029;-84
2022/04/14 12:02:09;;;;;;;9.48;5.40;;;28.10;27.50;;;;;;5053798;28;20028;-84
2022/04/14 12:04:36;;;;;;;9.60;5.88;;;28.20;28.30;;;;;;5067849;28;20048;-84
2022/04/14 12:07:02;;;;;;;11.98;6.00;;;28.50;27.50;;;;;;5058634;28;20017;-85
2022/04/14 12:09:28;;;;;;;12.57;6.18;;;28.20;27.10;;;;;;5052818;28;20112;-84
2022/04/14 12:11:54;;;;;;;10.38;5.80;;;28.60;26.90;;;;;;5055244;28;20112;-85
2022/04/14 12:14:21;;;;;;;7.55;5.80;;;28.20;27.30;;;;;;5035564;28;20153;-83
2022/04/14 12:16:51;;;;;;;11.57;5.72;;;29.10;27.10;;;;;;5052099;28;20097;-85
2022/04/14 12:19:17;;;;;;;9.45;5.28;;;28.80;25.20;;;;;;5065424;28;20517;-85
2022/04/14 12:21:43;;;;;;;11.73;5.38;;;28.70;26.10;;;;;;5045052;28;20256;-86
2022/04/14 12:24:09;;;;;;;9.27;5.15;;;28.90;27.40;;;;;;5054550;28;20564;-85
2022/04/14 12:26:40;;;;;;;18.00;6.07;;;29.40;26.80;;;;;;5058520;28;20722;-85
2022/04/14 12:29:08;;;;;;;15.57;6.63;;;29.50;26.70;;;;;;5054159;28;20033;-85
2022/04/14 12:31:34;;;;;;;14.30;6.35;;;28.30;27.10;;;;;;5058694;28;20076;-81
2022/04/14 12:34:01;;;;;;;12.88;6.47;;;27.70;27.80;;;;;;5053224;28;20075;-84
2022/04/14 12:36:35;;;;;;;11.45;6.57;;;28.40;28.40;;;;;;5051567;28;20032;-88
2022/04/14 12:39:16;;;;;;;13.20;7.05;;;29.10;27.80;;;;;;5050305;28;20021;-85
2022/04/14 12:41:41;;;;;;;11.50;7.43;;;29.10;26.90;;;;;;5053678;28;20021;-87
2022/04/14 12:44:07;;;;;;;13.52;7.38;;;29.40;27.10;;;;;;5065666;28;20048;-86
2022/04/14 12:46:38;;;;;;;14.23;7.25;;;29.40;27.20;;;;;;5049144;28;20050;-85
2022/04/14 12:49:09;;;;;;;13.75;7.38;;;29.30;27.10;;;;;;5051608;28;20491;-85